Time;durP1;ratioP1;P1;durP2;ratioP2;P2;SDS_P1;SDS_P2;PMS_P1;PMS_P2;Temp;Humidity;BMP_temperature;BMP_pressure;BME280_temperature;BME280_humidity;BME280_pressure;Samples;Min_cycle;Max_cycle;Signal;HPM_P1;HPM_P2
2022/08/22 00:02:03;;;;;;;2.85;2.50;;;16.90;74.20;;;;;;4944506;28;20047;-64
2022/08/22 00:04:38;;;;;;;5.43;2.35;;;17.00;74.70;;;;;;4944969;28;20039;-64
2022/08/22 00:07:29;;;;;;;4.38;2.65;;;17.00;75.10;;;;;;4943303;28;20707;-64
2022/08/22 00:10:10;;;;;;;2.38;2.17;;;17.10;74.30;;;;;;4944561;28;20393;-64
2022/08/22 00:12:57;;;;;;;3.00;2.20;;;17.10;74.00;;;;;;4944285;28;20031;-64
2022/08/22 00:15:37;;;;;;;2.53;2.33;;;17.10;74.70;;;;;;4950884;28;20094;-64
2022/08/22 00:18:09;;;;;;;3.33;2.42;;;17.20;73.50;;;;;;4942579;28;20035;-64
2022/08/22 00:20:37;;;;;;;4.00;2.13;;;17.10;73.60;;;;;;4946089;28;20035;-64
2022/08/22 00:23:11;;;;;;;5.32;2.55;;;17.10;73.50;;;;;;4946796;28;20311;-64
2022/08/22 00:25:51;;;;;;;2.97;2.63;;;17.00;74.00;;;;;;4942073;28;20027;-64
2022/08/22 00:28:28;;;;;;;4.05;2.80;;;17.00;73.50;;;;;;4945541;28;20518;-64
2022/08/22 00:31:12;;;;;;;3.25;2.63;;;16.90;74.20;;;;;;4947190;28;20487;-64
2022/08/22 00:33:45;;;;;;;3.88;2.85;;;16.90;74.90;;;;;;4946286;28;20388;-64
2022/08/22 00:36:27;;;;;;;5.07;2.90;;;16.80;74.20;;;;;;4945546;28;20042;-64
2022/08/22 00:39:24;;;;;;;2.78;2.58;;;16.80;75.10;;;;;;4947274;28;20034;-64
2022/08/22 00:42:13;;;;;;;3.85;2.28;;;16.60;75.80;;;;;;4949074;28;20042;-64
2022/08/22 00:45:29;;;;;;;3.67;2.60;;;16.60;75.50;;;;;;4947193;28;20134;-63
2022/08/22 00:48:07;;;;;;;2.88;2.50;;;16.60;75.80;;;;;;4929806;28;20459;-63
2022/08/22 00:51:00;;;;;;;3.70;2.40;;;16.50;75.40;;;;;;4948014;28;20408;-64
2022/08/22 00:53:37;;;;;;;3.55;2.65;;;16.60;75.90;;;;;;4946304;28;20513;-64
2022/08/22 00:56:36;;;;;;;2.60;2.40;;;16.60;75.40;;;;;;4948550;28;20039;-64
2022/08/22 00:59:11;;;;;;;3.10;2.80;;;16.60;75.60;;;;;;4944879;28;20036;-61
2022/08/22 01:01:50;;;;;;;3.17;2.70;;;16.60;74.60;;;;;;4941762;28;20054;-64
2022/08/22 01:04:33;;;;;;;3.30;2.63;;;16.60;75.20;;;;;;4943902;28;20046;-63
2022/08/22 01:07:26;;;;;;;3.15;2.85;;;16.60;75.30;;;;;;4945569;28;20037;-63
2022/08/22 01:10:03;;;;;;;5.38;2.90;;;16.60;75.70;;;;;;4945277;28;20062;-63
2022/08/22 01:12:40;;;;;;;4.25;2.85;;;16.50;75.60;;;;;;4942737;28;20041;-64
2022/08/22 01:15:14;;;;;;;3.78;2.47;;;16.50;75.10;;;;;;4943870;28;20039;-64
2022/08/22 01:17:54;;;;;;;2.63;2.40;;;16.40;75.40;;;;;;4945988;28;20062;-63
2022/08/22 01:20:29;;;;;;;2.70;2.50;;;16.40;75.30;;;;;;4947085;28;20027;-64
2022/08/22 01:23:07;;;;;;;3.35;2.42;;;16.40;76.00;;;;;;4943563;28;20039;-63
2022/08/22 01:25:39;;;;;;;2.67;2.15;;;16.40;76.00;;;;;;4943234;28;20031;-64
2022/08/22 01:28:53;;;;;;;3.15;2.55;;;16.40;75.50;;;;;;4945063;28;20039;-63
2022/08/22 01:31:30;;;;;;;3.22;2.55;;;16.40;76.50;;;;;;4943675;28;20042;-64
2022/08/22 01:33:58;;;;;;;3.42;2.50;;;16.30;75.40;;;;;;4949071;28;20034;-64
2022/08/22 01:36:53;;;;;;;2.80;2.60;;;16.30;75.40;;;;;;4950192;28;20238;-63
2022/08/22 01:39:34;;;;;;;3.05;2.42;;;16.30;75.60;;;;;;4930163;28;20035;-64
2022/08/22 01:42:32;;;;;;;3.70;2.47;;;16.30;75.90;;;;;;4949350;28;20125;-63
2022/08/22 01:45:19;;;;;;;3.75;2.97;;;16.30;75.90;;;;;;4933076;28;20118;-63
2022/08/22 01:48:11;;;;;;;2.75;2.50;;;16.30;76.40;;;;;;4951649;28;20123;-63
2022/08/22 01:50:48;;;;;;;3.50;2.58;;;16.20;76.30;;;;;;4950156;28;20039;-63
2022/08/22 01:53:41;;;;;;;5.88;2.80;;;16.20;76.50;;;;;;4945953;28;20027;-64
2022/08/22 01:56:14;;;;;;;3.60;2.65;;;16.20;77.00;;;;;;4942549;28;20456;-66
2022/08/22 01:58:53;;;;;;;2.95;2.65;;;16.20;76.50;;;;;;4947162;28;20039;-63
2022/08/22 02:01:31;;;;;;;4.63;2.80;;;16.20;76.60;;;;;;4953046;28;20039;-64
2022/08/22 02:04:26;;;;;;;2.92;2.45;;;16.20;76.30;;;;;;4947035;28;20074;-64
2022/08/22 02:07:04;;;;;;;3.80;2.60;;;16.20;76.10;;;;;;4931800;28;20769;-64
2022/08/22 02:10:06;;;;;;;4.07;2.78;;;16.20;76.80;;;;;;4949162;28;20082;-63
2022/08/22 02:13:04;;;;;;;4.32;2.80;;;16.20;77.00;;;;;;4940920;28;20049;-64
2022/08/22 02:15:47;;;;;;;3.90;3.03;;;16.20;76.90;;;;;;4942805;28;20039;-64
2022/08/22 02:18:49;;;;;;;3.13;2.83;;;16.20;77.00;;;;;;4953052;28;20058;-63
2022/08/22 02:21:23;;;;;;;3.45;2.80;;;16.10;76.90;;;;;;4950127;28;20535;-64
2022/08/22 02:23:57;;;;;;;3.42;3.05;;;16.10;76.30;;;;;;4950123;28;20039;-63
2022/08/22 02:26:44;;;;;;;3.20;2.90;;;16.10;76.80;;;;;;4952121;28;20034;-63
2022/08/22 02:29:15;;;;;;;4.60;2.83;;;16.10;76.40;;;;;;4945672;28;20045;-62
2022/08/22 02:32:07;;;;;;;2.97;2.70;;;16.00;76.50;;;;;;4946863;28;20039;-64
2022/08/22 02:34:44;;;;;;;2.97;2.67;;;16.00;77.20;;;;;;4949106;28;20447;-63
2022/08/22 02:37:34;;;;;;;2.78;2.45;;;16.00;77.00;;;;;;4945390;28;20395;-63
2022/08/22 02:40:22;;;;;;;3.58;2.80;;;16.00;77.30;;;;;;4949250;28;20043;-63
2022/08/22 02:43:09;;;;;;;2.92;2.72;;;16.00;77.20;;;;;;4944672;28;20031;-63
2022/08/22 02:45:49;;;;;;;3.38;3.08;;;16.00;76.60;;;;;;4947867;28;20039;-63
2022/08/22 02:48:18;;;;;;;4.75;3.10;;;16.00;76.70;;;;;;4945642;28;20094;-64
2022/08/22 02:50:56;;;;;;;3.20;2.90;;;16.00;76.70;;;;;;4948123;28;20126;-62
2022/08/22 02:53:31;;;;;;;5.45;3.25;;;16.00;77.30;;;;;;4944900;28;20035;-63
2022/08/22 02:56:13;;;;;;;3.40;3.00;;;15.90;76.80;;;;;;4947105;28;20590;-64
2022/08/22 02:59:01;;;;;;;3.65;3.30;;;15.90;77.30;;;;;;4944019;28;20472;-64
2022/08/22 03:01:27;;;;;;;3.08;2.85;;;15.90;76.80;;;;;;4938656;28;20592;-64
2022/08/22 03:04:15;;;;;;;3.78;2.80;;;15.90;76.60;;;;;;4950225;28;20035;-64
2022/08/22 03:07:04;;;;;;;2.78;2.58;;;15.80;77.50;;;;;;4947274;28;20484;-63
2022/08/22 03:09:51;;;;;;;4.07;2.63;;;15.80;77.00;;;;;;4951820;28;20292;-63
2022/08/22 03:12:42;;;;;;;3.05;2.80;;;15.80;77.00;;;;;;4946462;28;20031;-64
2022/08/22 03:15:13;;;;;;;3.08;2.78;;;15.80;77.30;;;;;;4949985;28;20137;-64
2022/08/22 03:17:52;;;;;;;2.63;2.42;;;15.80;76.60;;;;;;4953275;28;20035;-63
2022/08/22 03:20:34;;;;;;;4.53;2.78;;;15.80;76.80;;;;;;4950710;28;20035;-61
2022/08/22 03:23:18;;;;;;;3.42;3.13;;;15.70;77.20;;;;;;4948489;28;20159;-63
2022/08/22 03:26:02;;;;;;;5.07;3.08;;;15.70;76.80;;;;;;4949586;28;20035;-63
2022/08/22 03:28:35;;;;;;;5.85;2.97;;;15.70;77.00;;;;;;4950584;28;20036;-62
2022/08/22 03:31:13;;;;;;;3.25;2.58;;;15.60;76.80;;;;;;4944855;28;20051;-63
2022/08/22 03:33:39;;;;;;;3.50;2.92;;;15.60;77.30;;;;;;4953108;28;20360;-64
2022/08/22 03:36:26;;;;;;;5.75;3.03;;;15.60;76.90;;;;;;4950351;28;20444;-63
2022/08/22 03:38:54;;;;;;;4.20;2.70;;;15.60;78.10;;;;;;4949723;28;20038;-63
2022/08/22 03:41:26;;;;;;;3.63;2.47;;;15.60;77.40;;;;;;4945209;28;20039;-63
2022/08/22 03:44:04;;;;;;;3.53;3.22;;;15.60;77.40;;;;;;4949313;28;20038;-63
2022/08/22 03:46:32;;;;;;;4.57;2.78;;;15.60;77.80;;;;;;4947305;28;20039;-63
2022/08/22 03:49:23;;;;;;;3.55;2.83;;;15.60;77.30;;;;;;4949165;28;20043;-64
2022/08/22 03:51:57;;;;;;;5.13;2.90;;;15.60;77.90;;;;;;4948236;28;20031;-63
2022/08/22 03:54:56;;;;;;;3.83;3.20;;;15.50;77.30;;;;;;4950092;28;20039;-63
2022/08/22 03:57:45;;;;;;;3.20;2.92;;;15.50;77.70;;;;;;4949503;28;20042;-63
2022/08/22 04:00:46;;;;;;;3.05;2.78;;;15.50;77.30;;;;;;4943198;28;20035;-63
2022/08/22 04:03:25;;;;;;;3.10;2.80;;;15.50;77.80;;;;;;4948028;28;20085;-63
2022/08/22 04:05:57;;;;;;;2.92;2.60;;;15.40;77.30;;;;;;4950302;28;20058;-62
2022/08/22 04:08:51;;;;;;;2.60;2.40;;;15.40;77.00;;;;;;4951456;28;20035;-63
2022/08/22 04:11:47;;;;;;;2.85;2.25;;;15.40;77.90;;;;;;4946109;28;20415;-63
2022/08/22 04:14:37;;;;;;;3.65;2.67;;;15.40;78.00;;;;;;4950685;28;20091;-62
2022/08/22 04:17:43;;;;;;;2.72;2.53;;;15.40;77.80;;;;;;4945956;28;20119;-63
2022/08/22 04:20:37;;;;;;;3.25;2.42;;;15.40;77.70;;;;;;4948392;28;22207;-63
2022/08/22 04:23:13;;;;;;;4.95;2.80;;;15.30;77.40;;;;;;4949540;28;20530;-64
2022/08/22 04:26:16;;;;;;;3.78;2.55;;;15.30;77.60;;;;;;4947211;28;20526;-62
2022/08/22 04:28:48;;;;;;;3.65;2.75;;;15.30;78.00;;;;;;4910321;28;20031;-64
2022/08/22 04:31:21;;;;;;;2.58;2.38;;;15.30;77.20;;;;;;4945177;28;20040;-63
2022/08/22 04:33:56;;;;;;;3.03;2.67;;;15.20;77.40;;;;;;4945658;28;20123;-63
2022/08/22 04:36:26;;;;;;;3.03;2.78;;;15.20;77.60;;;;;;4949009;28;20119;-62
2022/08/22 04:39:09;;;;;;;3.97;2.92;;;15.20;77.60;;;;;;4948387;28;20027;-63
2022/08/22 04:41:43;;;;;;;3.33;3.10;;;15.20;77.90;;;;;;4949912;28;20082;-64
2022/08/22 04:44:23;;;;;;;4.47;3.03;;;15.10;77.70;;;;;;4947267;28;20071;-63
2022/08/22 04:47:07;;;;;;;3.53;2.85;;;15.10;77.70;;;;;;4945020;28;20051;-63
2022/08/22 04:49:51;;;;;;;4.05;2.90;;;15.10;78.00;;;;;;4945920;28;20497;-62
2022/08/22 04:52:44;;;;;;;4.70;3.37;;;15.00;78.60;;;;;;4951616;28;20110;-63
2022/08/22 04:55:09;;;;;;;4.25;3.10;;;14.90;78.60;;;;;;4946108;28;20166;-63
2022/08/22 04:58:08;;;;;;;3.78;3.20;;;14.90;78.20;;;;;;4947351;28;20126;-63
2022/08/22 05:00:40;;;;;;;4.25;2.97;;;14.90;80.10;;;;;;4942422;28;20130;-64
2022/08/22 05:03:13;;;;;;;4.70;2.90;;;14.90;78.90;;;;;;4947133;28;20113;-63
2022/08/22 05:05:41;;;;;;;4.88;3.15;;;14.90;79.60;;;;;;4948847;28;20069;-61
2022/08/22 05:08:12;;;;;;;3.45;3.13;;;14.90;79.40;;;;;;4953187;28;20039;-63
2022/08/22 05:10:42;;;;;;;5.25;3.40;;;15.00;79.90;;;;;;4948007;28;20063;-63
2022/08/22 05:13:16;;;;;;;5.20;3.50;;;15.00;79.90;;;;;;4951310;28;20043;-63
2022/08/22 05:15:47;;;;;;;3.78;3.47;;;15.10;80.00;;;;;;4949704;28;20035;-63
2022/08/22 05:18:40;;;;;;;4.97;3.67;;;15.10;80.00;;;;;;4951424;28;20521;-63
2022/08/22 05:21:08;;;;;;;5.55;3.63;;;15.10;80.60;;;;;;4951612;28;20043;-62
2022/08/22 05:23:41;;;;;;;6.47;4.03;;;15.20;79.90;;;;;;4955528;28;20507;-63
2022/08/22 05:26:08;;;;;;;3.53;3.22;;;15.20;79.80;;;;;;4948260;28;20142;-62
2022/08/22 05:28:39;;;;;;;4.47;3.33;;;15.30;79.90;;;;;;4951478;28;20043;-63
2022/08/22 05:31:28;;;;;;;4.93;4.07;;;15.30;80.00;;;;;;4950739;28;20264;-62
2022/08/22 05:34:02;;;;;;;7.30;3.60;;;15.40;81.30;;;;;;4948817;28;20033;-63
2022/08/22 05:36:32;;;;;;;4.87;3.77;;;15.40;80.60;;;;;;4952898;28;20512;-63
2022/08/22 05:39:05;;;;;;;3.72;3.40;;;15.50;80.40;;;;;;4948941;28;22137;-62
2022/08/22 05:41:37;;;;;;;3.50;2.90;;;15.60;80.70;;;;;;4951638;28;20211;-64
2022/08/22 05:44:06;;;;;;;5.43;2.97;;;15.60;80.60;;;;;;4951686;28;20514;-63
2022/08/22 05:46:40;;;;;;;4.53;3.15;;;15.70;80.80;;;;;;4947066;28;20114;-63
2022/08/22 05:49:16;;;;;;;4.88;3.25;;;15.80;80.80;;;;;;4948620;28;20130;-63
2022/08/22 05:51:46;;;;;;;5.10;3.13;;;15.80;80.50;;;;;;4947428;28;20133;-63
2022/08/22 05:54:22;;;;;;;4.20;3.38;;;15.90;80.10;;;;;;4956746;28;20058;-63
2022/08/22 05:56:56;;;;;;;4.78;3.38;;;15.90;81.00;;;;;;4946375;28;20073;-63
2022/08/22 05:59:34;;;;;;;3.87;3.23;;;16.00;80.10;;;;;;4949992;28;20042;-61
2022/08/22 06:02:08;;;;;;;3.95;3.50;;;16.10;80.20;;;;;;4950579;28;20295;-63
2022/08/22 06:04:53;;;;;;;6.63;3.90;;;16.10;79.90;;;;;;4948793;28;20528;-62
2022/08/22 06:07:42;;;;;;;4.97;3.58;;;16.20;80.20;;;;;;4952884;28;20047;-63
2022/08/22 06:10:18;;;;;;;7.25;3.78;;;16.20;79.80;;;;;;4949252;28;20059;-63
2022/08/22 06:12:51;;;;;;;8.25;3.78;;;16.30;80.30;;;;;;4943663;28;20039;-63
2022/08/22 06:15:27;;;;;;;4.78;3.88;;;16.40;80.30;;;;;;4952766;28;20038;-63
2022/08/22 06:17:59;;;;;;;3.97;3.58;;;16.40;80.10;;;;;;4942858;28;20038;-61
2022/08/22 06:20:38;;;;;;;5.38;3.97;;;16.50;81.50;;;;;;4949273;28;20038;-62
2022/08/22 06:23:06;;;;;;;4.07;3.60;;;16.60;80.90;;;;;;4948788;28;20113;-62
2022/08/22 06:25:34;;;;;;;4.95;3.90;;;16.60;80.20;;;;;;4946050;28;20051;-60
2022/08/22 06:28:08;;;;;;;4.30;3.85;;;16.60;80.20;;;;;;4952616;28;20027;-60
2022/08/22 06:30:35;;;;;;;6.68;4.50;;;16.60;80.20;;;;;;4953588;28;20570;-62
2022/08/22 06:33:08;;;;;;;4.30;3.90;;;16.70;79.90;;;;;;4949813;28;20106;-60
2022/08/22 06:38:50;;;;;;;4.30;3.65;;;16.70;80.30;;;;;;4951137;28;20066;-62
2022/08/22 06:41:18;;;;;;;4.97;3.97;;;16.80;80.80;;;;;;4947614;28;20123;-61
2022/08/22 06:43:43;;;;;;;5.35;4.80;;;16.80;80.20;;;;;;4949556;28;20401;-61
2022/08/22 06:46:13;;;;;;;6.72;4.47;;;16.90;80.40;;;;;;4948830;28;20531;-60
2022/08/22 06:48:40;;;;;;;5.10;4.60;;;16.90;80.50;;;;;;4941647;28;20035;-61
2022/08/22 06:51:07;;;;;;;4.43;3.92;;;16.90;80.40;;;;;;4949965;28;20047;-62
2022/08/22 06:53:41;;;;;;;4.68;4.07;;;17.00;80.50;;;;;;4955044;28;20066;-62
2022/08/22 06:56:06;;;;;;;4.18;3.72;;;17.10;81.00;;;;;;4952599;28;20438;-62
2022/08/22 06:58:55;;;;;;;4.93;4.22;;;17.10;80.70;;;;;;4951169;28;20051;-63
2022/08/22 07:01:28;;;;;;;6.28;4.47;;;17.10;80.80;;;;;;4945791;28;20658;-59
2022/08/22 07:03:59;;;;;;;5.53;4.47;;;17.20;80.60;;;;;;4937837;28;20050;-62
2022/08/22 07:06:35;;;;;;;4.53;4.13;;;17.30;80.30;;;;;;4946096;28;20126;-62
2022/08/22 07:09:01;;;;;;;6.22;4.57;;;17.40;80.30;;;;;;4948322;28;20546;-62
2022/08/22 07:11:31;;;;;;;6.32;4.47;;;17.40;80.00;;;;;;4945768;28;20031;-62
2022/08/22 07:14:01;;;;;;;5.72;4.28;;;17.50;80.00;;;;;;4945609;28;20031;-62
2022/08/22 07:17:02;;;;;;;8.25;4.70;;;17.60;80.10;;;;;;4942720;28;20499;-62
2022/08/22 07:19:36;;;;;;;6.45;4.32;;;17.70;80.80;;;;;;4942668;28;20416;-59
2022/08/22 07:22:20;;;;;;;5.43;4.50;;;17.70;80.10;;;;;;4944463;28;20174;-63
2022/08/22 07:24:50;;;;;;;5.78;4.70;;;17.80;80.20;;;;;;4946346;28;20039;-62
2022/08/22 07:27:44;;;;;;;6.55;4.65;;;17.90;79.80;;;;;;4949601;28;20506;-63
2022/08/22 07:30:13;;;;;;;6.10;4.43;;;18.00;80.00;;;;;;4948393;28;20043;-62
2022/08/22 07:32:47;;;;;;;5.50;4.88;;;18.00;79.80;;;;;;4949924;28;20083;-63
2022/08/22 07:35:14;;;;;;;5.32;4.88;;;18.10;80.00;;;;;;4945821;28;20135;-63
2022/08/22 07:38:12;;;;;;;6.63;4.80;;;18.10;79.70;;;;;;4943898;28;20045;-63
2022/08/22 07:41:09;;;;;;;5.25;4.53;;;18.20;79.70;;;;;;4942972;28;20042;-62
2022/08/22 07:43:44;;;;;;;6.63;5.25;;;18.30;79.60;;;;;;4947791;28;20285;-62
2022/08/22 07:46:31;;;;;;;6.30;4.97;;;18.40;79.30;;;;;;4942681;28;20518;-63
2022/08/22 07:49:22;;;;;;;5.97;4.68;;;18.40;78.90;;;;;;4949346;28;20031;-62
2022/08/22 07:51:52;;;;;;;6.22;5.03;;;18.50;78.50;;;;;;4945901;28;20499;-61
2022/08/22 07:54:53;;;;;;;7.07;5.32;;;18.60;78.50;;;;;;4947186;28;20044;-63
2022/08/22 07:57:30;;;;;;;5.82;5.05;;;18.70;78.90;;;;;;4946720;28;20126;-62
2022/08/22 07:59:58;;;;;;;5.85;5.28;;;18.70;78.40;;;;;;4943132;28;20035;-63
2022/08/22 08:02:24;;;;;;;6.95;5.70;;;18.80;78.20;;;;;;4941659;28;20511;-62
2022/08/22 08:04:53;;;;;;;5.57;5.05;;;18.90;78.00;;;;;;4948749;28;20040;-63
2022/08/22 08:07:24;;;;;;;6.05;5.45;;;18.90;78.10;;;;;;4952182;28;20031;-61
2022/08/22 08:09:55;;;;;;;6.15;5.38;;;19.00;78.20;;;;;;4950388;28;20045;-63
2022/08/22 08:12:29;;;;;;;5.85;4.97;;;19.10;77.90;;;;;;4940491;28;20031;-63
2022/08/22 08:14:55;;;;;;;8.05;5.43;;;19.20;77.70;;;;;;4936704;28;20050;-62
2022/08/22 08:17:27;;;;;;;8.30;6.45;;;19.30;77.70;;;;;;4951176;28;20044;-62
2022/08/22 08:19:55;;;;;;;5.45;4.93;;;19.40;77.30;;;;;;4951296;28;20035;-62
2022/08/22 08:22:25;;;;;;;7.40;5.75;;;19.50;77.20;;;;;;4951653;28;20035;-63
2022/08/22 08:24:56;;;;;;;7.57;5.78;;;19.60;77.30;;;;;;4950475;28;20028;-63
2022/08/22 08:30:18;;;;;;;6.45;5.07;;;19.70;76.60;;;;;;4951382;28;20057;-61
2022/08/22 08:32:55;;;;;;;7.07;5.65;;;19.80;76.60;;;;;;4949681;28;20459;-62
2022/08/22 08:35:27;;;;;;;6.80;5.68;;;19.90;76.20;;;;;;4951321;28;20115;-63
2022/08/22 08:38:14;;;;;;;7.28;5.65;;;20.00;75.90;;;;;;4952851;28;20069;-62
2022/08/22 08:41:29;;;;;;;5.78;5.28;;;20.10;75.70;;;;;;4954798;28;20490;-63
2022/08/22 08:44:02;;;;;;;5.82;5.13;;;20.20;75.50;;;;;;4888583;29;20393;-62
2022/08/22 08:46:41;;;;;;;6.85;5.38;;;20.30;75.80;;;;;;4947252;28;20454;-62
2022/08/22 08:49:16;;;;;;;7.47;5.60;;;20.40;75.60;;;;;;4955545;28;20550;-62
2022/08/22 08:51:59;;;;;;;5.50;4.97;;;20.50;75.60;;;;;;4953699;28;20050;-63
2022/08/22 08:54:42;;;;;;;7.07;5.47;;;20.70;75.30;;;;;;4951625;28;20027;-62
2022/08/22 08:57:26;;;;;;;8.95;6.07;;;20.70;74.20;;;;;;4958267;28;20037;-62
2022/08/22 09:00:12;;;;;;;5.15;4.70;;;20.80;74.30;;;;;;4955386;28;20047;-62
2022/08/22 09:03:04;;;;;;;5.82;5.25;;;20.90;74.50;;;;;;4953663;28;20058;-62
2022/08/22 09:05:38;;;;;;;6.20;5.22;;;21.10;74.00;;;;;;4951871;28;20083;-62
2022/08/22 09:08:55;;;;;;;6.28;5.03;;;21.10;74.00;;;;;;4954955;28;20149;-63
2022/08/22 09:12:05;;;;;;;6.70;5.32;;;21.30;74.00;;;;;;4876257;29;20045;-63
2022/08/22 09:14:55;;;;;;;6.78;4.78;;;21.40;72.80;;;;;;4947434;28;20059;-63
2022/08/22 09:18:09;;;;;;;5.50;4.50;;;21.50;73.00;;;;;;4957028;28;20511;-64
2022/08/22 09:21:06;;;;;;;6.93;5.00;;;21.60;72.80;;;;;;4954545;28;20047;-61
2022/08/22 09:23:46;;;;;;;6.35;4.60;;;21.70;72.00;;;;;;4953620;28;20051;-62
2022/08/22 09:26:23;;;;;;;5.30;4.50;;;21.80;72.00;;;;;;4940991;28;20035;-63
2022/08/22 09:28:58;;;;;;;4.07;3.65;;;21.90;71.20;;;;;;4957098;28;20466;-63
2022/08/22 09:31:42;;;;;;;4.35;3.97;;;22.10;70.40;;;;;;4953825;28;20039;-63
2022/08/22 09:34:16;;;;;;;5.03;4.53;;;22.20;70.30;;;;;;4945443;28;20114;-63
2022/08/22 09:36:57;;;;;;;4.60;4.20;;;22.30;70.70;;;;;;4948775;28;20093;-63
2022/08/22 09:39:46;;;;;;;4.38;3.97;;;22.40;69.20;;;;;;4958379;28;20031;-62
2022/08/22 09:42:51;;;;;;;6.75;4.38;;;22.50;68.60;;;;;;4957413;28;20158;-61
2022/08/22 09:45:44;;;;;;;4.22;3.83;;;22.70;67.60;;;;;;4957575;28;20035;-61
2022/08/22 09:48:27;;;;;;;6.32;4.78;;;22.80;68.10;;;;;;4956539;28;20047;-62
2022/08/22 09:51:33;;;;;;;4.72;4.32;;;22.90;66.70;;;;;;4956405;28;20114;-62
2022/08/22 09:54:05;;;;;;;4.55;4.03;;;23.00;65.20;;;;;;4949235;28;20525;-63
2022/08/22 09:56:42;;;;;;;4.50;4.10;;;23.10;67.20;;;;;;4949850;28;20894;-61
2022/08/22 09:59:16;;;;;;;4.45;4.00;;;23.20;64.90;;;;;;4951387;28;20457;-64
2022/08/22 10:01:48;;;;;;;4.72;4.32;;;23.40;64.80;;;;;;4952560;28;20102;-62
2022/08/22 10:04:22;;;;;;;4.75;4.35;;;23.40;64.80;;;;;;4954848;28;20415;-63
2022/08/22 10:07:00;;;;;;;4.30;3.88;;;23.50;64.90;;;;;;4953789;28;20031;-63
2022/08/22 10:09:40;;;;;;;4.40;3.75;;;23.60;64.10;;;;;;4949523;28;20294;-63
2022/08/22 10:12:10;;;;;;;4.30;3.90;;;23.70;64.50;;;;;;4946765;28;20474;-63
2022/08/22 10:14:53;;;;;;;3.78;3.47;;;23.80;63.80;;;;;;4955045;28;20039;-63
2022/08/22 10:17:35;;;;;;;3.67;3.30;;;23.90;63.40;;;;;;4953868;28;20035;-63
2022/08/22 10:20:15;;;;;;;3.45;3.15;;;24.00;62.60;;;;;;4953429;28;20050;-62
2022/08/22 10:22:53;;;;;;;4.00;3.60;;;24.10;62.00;;;;;;4951303;28;20035;-63
2022/08/22 10:25:39;;;;;;;3.63;3.33;;;24.20;61.70;;;;;;4953445;28;20035;-63
2022/08/22 10:28:38;;;;;;;4.18;3.78;;;24.30;61.00;;;;;;4956998;28;20062;-63
2022/08/22 10:31:46;;;;;;;3.90;3.55;;;24.40;60.10;;;;;;4951082;28;20027;-63
2022/08/22 10:34:19;;;;;;;3.95;3.63;;;24.50;59.20;;;;;;4944136;28;20043;-63
2022/08/22 10:37:03;;;;;;;3.55;3.25;;;24.60;61.40;;;;;;4953386;28;20031;-62
2022/08/22 10:40:01;;;;;;;5.13;3.22;;;24.60;60.30;;;;;;4950959;28;20036;-62
2022/08/22 10:42:32;;;;;;;3.65;3.05;;;24.70;60.40;;;;;;4951069;28;20589;-63
2022/08/22 10:45:06;;;;;;;4.05;3.65;;;24.80;60.50;;;;;;4955182;28;21056;-63
2022/08/22 10:48:00;;;;;;;3.70;3.40;;;24.90;59.70;;;;;;4953006;28;20046;-62
2022/08/22 10:50:39;;;;;;;4.25;3.85;;;24.90;59.60;;;;;;4952906;28;20038;-62
2022/08/22 10:53:29;;;;;;;3.85;3.55;;;25.00;60.00;;;;;;4936581;28;20047;-63
2022/08/22 10:56:24;;;;;;;3.50;3.22;;;25.10;59.00;;;;;;4947790;28;20039;-63
2022/08/22 10:59:00;;;;;;;;;;;25.10;58.70;;;;;;4953941;28;20031;-63
2022/08/22 11:01:31;;;;;;;3.33;3.13;;;25.20;58.90;;;;;;4952359;28;20488;-64
2022/08/22 11:04:05;;;;;;;3.33;3.13;;;25.20;59.10;;;;;;4952420;28;20039;-64
2022/08/22 11:07:09;;;;;;;3.53;3.22;;;25.30;59.00;;;;;;4951162;28;20035;-63
2022/08/22 11:09:41;;;;;;;3.65;3.28;;;25.30;58.10;;;;;;4950258;28;20514;-63
2022/08/22 11:12:31;;;;;;;3.70;2.85;;;25.30;57.70;;;;;;4944873;28;20049;-64
2022/08/22 11:15:02;;;;;;;3.60;3.28;;;25.30;57.20;;;;;;4953824;28;20109;-63
2022/08/22 11:18:02;;;;;;;3.50;3.20;;;25.40;56.30;;;;;;4952572;28;20173;-63
2022/08/22 11:20:50;;;;;;;4.10;3.13;;;25.40;55.30;;;;;;4950098;28;20094;-63
2022/08/22 11:23:41;;;;;;;2.88;2.67;;;25.40;56.20;;;;;;4953531;28;20034;-63
2022/08/22 11:26:15;;;;;;;4.88;3.20;;;25.40;56.30;;;;;;4953908;28;20116;-63
2022/08/22 11:29:01;;;;;;;3.60;3.30;;;25.30;56.20;;;;;;4952360;28;20038;-63
2022/08/22 11:31:30;;;;;;;3.03;2.72;;;25.30;54.40;;;;;;4951955;28;20035;-63
2022/08/22 11:34:24;;;;;;;3.22;2.92;;;25.30;56.30;;;;;;4952485;28;20031;-63
2022/08/22 11:36:53;;;;;;;4.15;2.88;;;25.30;55.60;;;;;;4952107;28;20047;-64
2022/08/22 11:39:41;;;;;;;3.05;2.80;;;25.30;55.50;;;;;;4950264;28;20110;-64
2022/08/22 11:42:13;;;;;;;3.20;2.92;;;25.30;54.90;;;;;;4947323;28;20523;-63
2022/08/22 11:44:54;;;;;;;3.22;3.03;;;25.40;55.60;;;;;;4948444;28;20654;-63
2022/08/22 11:47:23;;;;;;;2.97;2.78;;;25.40;55.10;;;;;;4933015;28;20657;-63
2022/08/22 11:50:05;;;;;;;3.13;2.72;;;25.40;56.00;;;;;;4944755;28;20131;-63
2022/08/22 11:52:50;;;;;;;2.90;2.70;;;25.40;56.00;;;;;;4943179;28;20073;-63
2022/08/22 11:55:22;;;;;;;3.10;2.80;;;25.50;55.20;;;;;;4939979;28;20520;-64
2022/08/22 11:58:11;;;;;;;3.05;2.80;;;25.50;55.50;;;;;;4941633;28;20031;-64
2022/08/22 12:00:36;;;;;;;3.17;2.88;;;25.60;55.10;;;;;;4940674;28;20380;-63
2022/08/22 12:03:41;;;;;;;3.33;2.72;;;25.70;55.20;;;;;;4943317;28;20046;-63
2022/08/22 12:06:33;;;;;;;3.08;2.70;;;25.80;54.70;;;;;;4943053;28;20046;-63
2022/08/22 12:09:14;;;;;;;2.75;2.53;;;25.80;54.40;;;;;;4941804;28;20553;-64
2022/08/22 12:11:45;;;;;;;3.50;2.70;;;25.90;54.20;;;;;;4942198;28;20050;-63
2022/08/22 12:14:17;;;;;;;3.55;2.45;;;26.00;54.50;;;;;;4943153;28;20508;-63
2022/08/22 12:17:08;;;;;;;3.55;2.65;;;26.00;53.50;;;;;;4942948;28;20078;-64
2022/08/22 12:20:08;;;;;;;2.63;2.42;;;26.10;53.20;;;;;;4944006;28;20045;-63
2022/08/22 12:22:59;;;;;;;2.55;2.35;;;26.10;53.00;;;;;;4939070;28;20047;-63
2022/08/22 12:25:40;;;;;;;2.75;2.25;;;26.20;53.00;;;;;;4942291;28;20046;-64
2022/08/22 12:28:44;;;;;;;2.55;2.35;;;26.20;53.40;;;;;;4944117;28;20066;-63
2022/08/22 12:31:24;;;;;;;5.05;2.50;;;26.30;52.70;;;;;;4942322;28;20986;-61
2022/08/22 12:34:36;;;;;;;2.10;2.00;;;26.30;51.40;;;;;;4950444;28;20034;-63
2022/08/22 12:37:20;;;;;;;2.65;2.45;;;26.40;52.00;;;;;;4894570;29;20039;-63
2022/08/22 12:40:07;;;;;;;2.55;2.35;;;26.40;51.20;;;;;;4894000;29;20489;-63
2022/08/22 12:42:36;;;;;;;2.30;2.20;;;26.50;50.80;;;;;;4925212;28;20066;-63
2022/08/22 12:45:26;;;;;;;3.35;2.28;;;26.50;51.10;;;;;;4944841;28;20058;-64
2022/08/22 12:48:10;;;;;;;2.55;2.20;;;26.50;50.20;;;;;;4948664;28;20046;-63
2022/08/22 12:50:50;;;;;;;2.53;2.33;;;26.50;50.40;;;;;;4946653;28;20622;-64
2022/08/22 12:53:34;;;;;;;3.00;2.75;;;26.50;49.10;;;;;;4952720;28;20093;-63
2022/08/22 12:56:18;;;;;;;4.00;3.17;;;26.50;49.00;;;;;;4949782;28;20446;-61
2022/08/22 12:59:02;;;;;;;6.85;2.53;;;26.50;49.80;;;;;;4944949;28;20038;-63
2022/08/22 13:01:35;;;;;;;2.30;2.13;;;26.50;49.70;;;;;;4949465;28;20053;-63
2022/08/22 13:04:06;;;;;;;2.33;2.20;;;26.50;46.90;;;;;;4948346;28;20370;-63
2022/08/22 13:06:34;;;;;;;2.67;2.30;;;26.50;49.00;;;;;;4947668;28;20043;-64
2022/08/22 13:09:08;;;;;;;3.90;2.58;;;26.50;48.50;;;;;;4947228;28;20415;-64
2022/08/22 13:11:38;;;;;;;2.95;2.20;;;26.50;48.00;;;;;;4943573;28;20058;-63
2022/08/22 13:14:06;;;;;;;3.50;2.20;;;26.40;48.40;;;;;;4948180;28;20035;-63
2022/08/22 13:16:39;;;;;;;3.10;2.08;;;26.40;47.90;;;;;;4946968;28;20086;-61
2022/08/22 13:19:17;;;;;;;2.50;2.30;;;26.50;47.70;;;;;;4946432;28;20622;-63
2022/08/22 13:21:50;;;;;;;2.47;2.05;;;26.40;47.40;;;;;;4947148;28;20126;-65
2022/08/22 13:24:45;;;;;;;2.17;1.98;;;26.40;47.90;;;;;;4952215;28;20035;-63
2022/08/22 13:27:35;;;;;;;2.75;2.25;;;26.40;47.20;;;;;;4936339;28;20395;-62
2022/08/22 13:30:06;;;;;;;2.30;2.05;;;26.40;47.30;;;;;;4945862;28;20118;-62
2022/08/22 13:32:40;;;;;;;2.72;2.13;;;26.40;48.50;;;;;;4955869;28;20067;-63
2022/08/22 13:35:08;;;;;;;3.35;2.40;;;26.40;47.20;;;;;;4956775;28;20038;-63
2022/08/22 13:37:43;;;;;;;2.10;2.00;;;26.40;48.20;;;;;;4954341;28;20041;-64
2022/08/22 13:40:14;;;;;;;2.95;2.42;;;26.40;48.10;;;;;;4956163;28;20118;-62
2022/08/22 13:42:47;;;;;;;3.03;2.20;;;26.40;49.00;;;;;;4950551;28;20062;-63
2022/08/22 13:45:20;;;;;;;2.65;2.45;;;26.40;48.30;;;;;;4950963;28;20032;-63
2022/08/22 13:47:55;;;;;;;2.45;2.22;;;26.40;48.80;;;;;;4951402;28;20055;-63
2022/08/22 13:50:21;;;;;;;;;;;26.40;48.90;;;;;;4950778;28;20093;-63
2022/08/22 13:53:25;;;;;;;3.30;2.22;;;26.50;49.40;;;;;;4951645;28;20457;-63
2022/08/22 13:56:04;;;;;;;2.17;2.00;;;26.40;49.00;;;;;;4951688;28;20046;-63
2022/08/22 13:59:00;;;;;;;2.40;2.20;;;26.40;48.80;;;;;;4951515;28;20046;-63
2022/08/22 14:01:57;;;;;;;4.13;2.45;;;26.30;48.50;;;;;;4946115;28;20098;-62
2022/08/22 14:04:29;;;;;;;2.33;2.13;;;26.30;48.50;;;;;;4948520;28;20516;-62